Terminal Aerodrome Forecast
Issued by NWS Charleston, WV

Current Version | Previous Version | Graphics & Text | Print | Product List | Glossary On
Versions: 1 2 3 4 5 6 7 8 9 10 11 12 13 14 15 16 17 18 19 20 21 22 23 24 25 26 27 28 29 30
000
FTUS41 KRLX 042337
TAFBKW
TAF
KBKW 042337Z 0500/0524 07007KT P6SM TSRA SCT035CB BKN050
     FM050100 12005KT P6SM BKN045
     FM050900 13007KT 5SM BR SCT020
     FM051400 14006KT P6SM BKN035=

USA.gov is the U.S. government's official web portal to all federal, state and local government web resources and services.